Terminal Aerodrome Forecast
Issued by NWS

Current Version | Previous Version | Graphics & Text | Print | Product List | Glossary On
Versions: 1 2 3 4 5 6 7 8 9 10 11 12 13 14 15 16 17 18 19 20 21 22 23 24 25 26 27 28
939
FTUS41 KRLX 191504 AAA
TAFCKB
TAF AMD
KCKB 191504Z 1915/2012 24004KT P6SM BKN150
     FM191900 26007KT P6SM VCSH BKN090
     FM200200 24002KT P6SM SCT100
     FM200900 00000KT 4SM BR SCT250
     FM201000 00000KT 1SM BR BKN001=

USA.gov is the U.S. government's official web portal to all federal, state and local government web resources and services.